createdAt,value
2022-10-20T00:03:50.744Z,13.00
2022-10-20T00:08:53.522Z,13.00
2022-10-20T00:13:56.635Z,13.00
2022-10-20T00:18:59.420Z,13.00
2022-10-20T00:24:02.175Z,13.00
2022-10-20T00:29:04.466Z,12.90
2022-10-20T00:34:06.226Z,12.90
2022-10-20T00:39:08.382Z,12.80
2022-10-20T00:44:44.121Z,12.70
2022-10-20T00:49:48.399Z,12.70
2022-10-20T00:54:50.488Z,12.60
2022-10-20T00:59:52.277Z,12.60
2022-10-20T01:04:54.216Z,12.50
2022-10-20T01:09:56.110Z,12.50
2022-10-20T01:20:30.004Z,12.30
2022-10-20T01:25:49.674Z,12.30
2022-10-20T01:30:58.292Z,12.30
2022-10-20T01:36:05.187Z,12.20
2022-10-20T01:41:46.371Z,12.20
2022-10-20T01:46:48.462Z,12.10
2022-10-20T01:51:50.232Z,12.00
2022-10-20T01:57:10.119Z,12.00
2022-10-20T02:02:40.796Z,11.90
2022-10-20T02:07:43.692Z,11.90
2022-10-20T02:12:50.375Z,11.90
2022-10-20T02:17:59.917Z,11.80
2022-10-20T02:23:04.656Z,11.80
2022-10-20T02:28:10.481Z,11.80
2022-10-20T02:33:13.152Z,11.80
2022-10-20T02:38:14.861Z,11.70
2022-10-20T02:43:16.573Z,11.70
2022-10-20T02:48:18.234Z,11.70
2022-10-20T02:53:19.897Z,11.70
2022-10-20T02:58:21.520Z,11.70
2022-10-20T03:03:23.317Z,11.60
2022-10-20T03:08:25.115Z,11.60
2022-10-20T03:13:27.053Z,11.70
2022-10-20T03:18:28.825Z,11.50
2022-10-20T03:23:30.550Z,11.50
2022-10-20T03:28:32.567Z,11.50
2022-10-20T03:33:34.687Z,11.50
2022-10-20T03:38:36.358Z,11.40
2022-10-20T03:43:41.345Z,11.40
2022-10-20T03:48:42.978Z,11.40
2022-10-20T03:53:44.674Z,11.40
2022-10-20T03:58:47.384Z,11.40
2022-10-20T04:03:49.082Z,11.40
2022-10-20T04:08:50.930Z,11.40
2022-10-20T04:13:53.129Z,11.30
2022-10-20T04:18:55.928Z,11.30
2022-10-20T04:23:57.567Z,11.30
2022-10-20T04:28:59.345Z,11.20
2022-10-20T04:34:01.040Z,11.20
2022-10-20T04:39:06.372Z,11.20
2022-10-20T04:44:08.253Z,11.20
2022-10-20T04:49:09.968Z,11.20
2022-10-20T04:54:11.783Z,11.20
2022-10-20T04:59:14.002Z,11.20
2022-10-20T05:04:21.472Z,11.20
2022-10-20T05:09:23.405Z,11.20
2022-10-20T05:14:25.246Z,11.20
2022-10-20T05:19:27.193Z,11.20
2022-10-20T05:24:30.173Z,11.20
2022-10-20T05:29:32.004Z,11.20
2022-10-20T05:34:33.647Z,11.20
2022-10-20T05:39:35.429Z,11.10
2022-10-20T05:44:37.338Z,11.10
2022-10-20T05:49:39.049Z,11.10
2022-10-20T05:54:41.312Z,11.10
2022-10-20T05:59:42.937Z,11.10
2022-10-20T06:04:45.055Z,11.10
2022-10-20T06:09:46.739Z,11.10
2022-10-20T06:14:48.448Z,11.10
2022-10-20T06:19:51.111Z,11.10
2022-10-20T06:24:52.789Z,11.10
2022-10-20T06:29:54.761Z,11.20
2022-10-20T06:34:56.658Z,11.20
2022-10-20T06:39:59.348Z,11.20
2022-10-20T06:45:01.090Z,11.20
2022-10-20T06:50:02.814Z,11.30
2022-10-20T06:55:04.764Z,11.40
2022-10-20T07:00:07.029Z,11.40
2022-10-20T07:05:08.889Z,11.50
2022-10-20T07:10:10.613Z,11.60
2022-10-20T07:15:12.266Z,11.60
2022-10-20T07:20:15.011Z,11.70
2022-10-20T07:25:16.810Z,11.70
2022-10-20T07:30:18.534Z,11.70
2022-10-20T07:35:20.453Z,11.80
2022-10-20T07:40:22.252Z,11.90
2022-10-20T07:45:24.008Z,11.90
2022-10-20T07:50:26.353Z,12.00
2022-10-20T07:55:43.250Z,12.10
2022-10-20T08:00:46.189Z,12.10
2022-10-20T08:05:47.920Z,12.10
2022-10-20T08:10:50.074Z,12.20
2022-10-20T08:21:08.325Z,12.30
2022-10-20T08:26:11.624Z,12.30
2022-10-20T08:31:13.469Z,12.30
2022-10-20T08:36:15.399Z,12.30
2022-10-20T08:41:23.146Z,12.30
2022-10-20T08:46:32.945Z,12.30
2022-10-20T08:51:38.373Z,12.30
2022-10-20T08:56:40.293Z,12.40
2022-10-20T09:01:42.594Z,12.40
2022-10-20T09:06:48.043Z,12.40
2022-10-20T09:11:51.216Z,12.60
2022-10-20T09:17:00.224Z,12.50
2022-10-20T09:22:06.421Z,12.50
2022-10-20T09:27:24.449Z,12.50
2022-10-20T09:32:50.601Z,12.60
2022-10-20T09:38:03.933Z,12.70
2022-10-20T09:43:15.249Z,12.70
2022-10-20T09:48:31.005Z,12.80
2022-10-20T09:53:55.268Z,12.80
2022-10-20T09:58:59.001Z,12.90
2022-10-20T10:04:02.009Z,12.90
2022-10-20T10:09:34.445Z,12.90
2022-10-20T10:14:37.220Z,13.00
2022-10-20T10:19:38.926Z,13.00
2022-10-20T10:24:47.059Z,13.10
2022-10-20T10:29:48.828Z,13.10
2022-10-20T10:35:12.566Z,13.30
2022-10-20T10:40:20.164Z,13.30
2022-10-20T10:45:43.738Z,13.30
2022-10-20T10:50:51.481Z,13.30
2022-10-20T10:56:14.669Z,13.40
2022-10-20T11:01:45.228Z,13.40
2022-10-20T11:07:08.723Z,13.50
2022-10-20T11:12:22.303Z,13.50
2022-10-20T11:17:42.165Z,13.60
2022-10-20T11:22:53.195Z,13.60
2022-10-20T11:27:58.468Z,13.70
2022-10-20T11:33:18.283Z,13.70
2022-10-20T11:38:51.210Z,13.70
2022-10-20T11:44:07.353Z,13.70
2022-10-20T11:49:12.173Z,13.70
2022-10-20T11:54:45.028Z,13.70
2022-10-20T12:00:07.499Z,13.70
2022-10-20T12:05:34.896Z,13.70
2022-10-20T12:10:48.720Z,13.70
2022-10-20T12:15:52.855Z,13.60
2022-10-20T12:21:01.366Z,13.70
2022-10-20T12:26:03.068Z,13.60
2022-10-20T12:31:06.099Z,13.60
2022-10-20T12:36:17.116Z,13.60
2022-10-20T12:41:34.197Z,13.60
2022-10-20T12:46:41.694Z,13.60
2022-10-20T12:51:55.818Z,13.70
2022-10-20T12:57:01.406Z,13.70
2022-10-20T13:02:08.993Z,13.80
2022-10-20T13:07:10.722Z,13.80
2022-10-20T13:12:26.309Z,13.80
2022-10-20T13:17:47.189Z,13.80
2022-10-20T13:22:52.577Z,13.80
2022-10-20T13:28:18.189Z,13.80
2022-10-20T13:34:03.254Z,13.80
2022-10-20T13:39:14.640Z,13.80
2022-10-20T13:44:39.200Z,13.80
2022-10-20T13:49:58.212Z,13.80
2022-10-20T13:55:01.056Z,13.80
2022-10-20T14:00:29.911Z,13.80
2022-10-20T14:05:38.314Z,13.80
2022-10-20T14:10:49.477Z,13.80
2022-10-20T14:15:54.953Z,13.90
2022-10-20T14:21:02.516Z,13.90
2022-10-20T14:26:10.076Z,13.90
2022-10-20T14:31:13.032Z,13.90
2022-10-20T14:36:24.967Z,13.90
2022-10-20T14:41:35.411Z,13.90
2022-10-20T14:46:40.972Z,13.90
2022-10-20T14:52:03.865Z,13.90
2022-10-20T14:57:08.207Z,14.00
2022-10-20T15:02:29.356Z,13.90
2022-10-20T15:07:35.452Z,13.90
2022-10-20T15:12:37.649Z,13.90
2022-10-20T15:17:41.151Z,14.00
2022-10-20T15:22:43.056Z,14.00
2022-10-20T15:27:44.759Z,14.00
2022-10-20T15:32:47.150Z,14.00
2022-10-20T15:37:50.890Z,14.00
2022-10-20T15:42:52.582Z,14.00
2022-10-20T15:47:54.237Z,14.00
2022-10-20T15:52:55.979Z,14.00
2022-10-20T15:57:58.018Z,14.00
2022-10-20T16:03:00.760Z,14.00
2022-10-20T16:08:02.559Z,14.00
2022-10-20T16:13:04.702Z,14.00
2022-10-20T16:18:09.600Z,14.00
2022-10-20T16:23:11.892Z,13.90
2022-10-20T16:28:13.648Z,13.90
2022-10-20T16:33:15.355Z,13.90
2022-10-20T16:38:17.008Z,13.90
2022-10-20T16:43:18.728Z,13.90
2022-10-20T16:48:20.574Z,13.90
2022-10-20T16:53:23.675Z,13.90
2022-10-20T16:58:25.482Z,13.90
2022-10-20T17:03:27.312Z,13.90
2022-10-20T17:08:31.733Z,13.90
2022-10-20T17:13:34.060Z,13.90
2022-10-20T17:18:36.475Z,14.00
2022-10-20T17:23:42.703Z,13.90
2022-10-20T17:28:45.022Z,13.90
2022-10-20T17:33:47.343Z,13.80
2022-10-20T17:38:54.932Z,13.90
2022-10-20T17:44:00.586Z,13.90
2022-10-20T17:49:02.751Z,14.00
2022-10-20T17:54:04.574Z,14.00
2022-10-20T17:59:08.361Z,14.00
2022-10-20T18:04:15.197Z,14.00
2022-10-20T18:09:18.122Z,14.10
2022-10-20T18:14:19.952Z,14.20
2022-10-20T18:19:22.705Z,14.20
2022-10-20T18:24:25.558Z,14.10
2022-10-20T18:29:28.233Z,14.00
2022-10-20T18:34:31.965Z,14.20
2022-10-20T18:39:34.732Z,14.20
2022-10-20T18:44:36.414Z,14.20
2022-10-20T18:49:39.127Z,14.20
2022-10-20T18:54:41.828Z,14.20
2022-10-20T18:59:43.490Z,14.10
2022-10-20T19:04:45.329Z,14.20
2022-10-20T19:09:47.916Z,14.20
2022-10-20T19:14:52.115Z,14.20
2022-10-20T19:19:54.865Z,14.20
2022-10-20T19:24:57.608Z,14.20
2022-10-20T19:30:00.907Z,14.30
2022-10-20T19:35:04.465Z,14.20
2022-10-20T19:40:19.747Z,14.20
2022-10-20T19:45:22.602Z,14.30
2022-10-20T19:50:24.360Z,14.20
2022-10-20T19:55:26.089Z,14.30
2022-10-20T20:00:28.861Z,14.30
2022-10-20T20:05:30.586Z,14.40
2022-10-20T20:10:34.105Z,14.40
2022-10-20T20:15:35.857Z,14.40
2022-10-20T20:20:39.973Z,14.40
2022-10-20T20:25:47.315Z,14.60
2022-10-20T20:31:11.424Z,14.40
2022-10-20T20:36:15.334Z,14.50
2022-10-20T20:41:18.459Z,14.50
2022-10-20T20:46:23.082Z,14.50
2022-10-20T20:51:26.022Z,14.50
2022-10-20T20:56:28.788Z,14.50
2022-10-20T21:01:32.055Z,14.50
2022-10-20T21:06:56.507Z,14.50
2022-10-20T21:11:55.331Z,14.50
2022-10-20T21:16:57.191Z,14.50
2022-10-20T21:22:01.132Z,14.50
2022-10-20T21:27:02.917Z,14.50
2022-10-20T21:32:04.797Z,14.50
2022-10-20T21:37:06.509Z,14.60
2022-10-20T21:42:08.128Z,14.60
2022-10-20T21:47:09.936Z,14.60
2022-10-20T21:52:11.669Z,14.60
2022-10-20T21:57:14.572Z,14.60
2022-10-20T22:02:16.281Z,14.70
2022-10-20T22:07:17.970Z,14.70
2022-10-20T22:12:20.008Z,14.70
2022-10-20T22:17:21.737Z,14.80
2022-10-20T22:22:23.405Z,14.70
2022-10-20T22:27:31.750Z,14.70
2022-10-20T22:32:43.809Z,14.80
2022-10-20T22:37:45.489Z,14.80
2022-10-20T22:42:47.193Z,14.80
2022-10-20T22:47:48.861Z,14.80
2022-10-20T22:52:50.930Z,14.70
2022-10-20T22:57:54.741Z,14.70
2022-10-20T23:02:56.449Z,14.60
2022-10-20T23:07:59.379Z,14.70
2022-10-20T23:13:01.141Z,14.70
2022-10-20T23:18:02.953Z,14.60
2022-10-20T23:23:04.661Z,14.50
2022-10-20T23:28:06.286Z,14.50
2022-10-20T23:33:07.990Z,14.50
2022-10-20T23:38:10.067Z,14.40
2022-10-20T23:43:11.724Z,14.40
2022-10-20T23:48:13.720Z,14.40
2022-10-20T23:53:16.690Z,14.40
2022-10-20T23:58:21.937Z,14.40
